Garceno, Texas
Current Conditions -  °F | °C
As of 6:35 AM on Friday 31 Oct 2014 (Local Time) from KEBG Reporting Station
Clear Clear  
Wind Chill: 67°   Ceiling: Unl
Heat Index: 67°   Visibility: 7mi
Dew Point: 64°   Wind: 0mph
Humidity: 92%   Direction: NA
Pressure: 30.08"   Gusts: NA
Location:  26.5735°N, 98.695°W
Report Text: KEBG 311135Z AUTO 00000KT 7SM CLR 19/18 A3008 RMK AO2 LTG DSNT NE T01920178
Loading
Personal Weather Stations






























Interactive Weather Map
Tropical Storm Tracking
New forecast layout! Learn more

10-Day Weather Forecast

Advertisements
Track Severe Weather on mobile